createdAt,value
2022-08-22T00:00:00.007Z,17.70
2022-08-22T00:02:48.332Z,21.40
2022-08-22T00:02:58.874Z,18.50
2022-08-22T00:03:09.502Z,20.70
2022-08-22T00:05:22.744Z,17.60
2022-08-22T00:10:31.461Z,17.50
2022-08-22T00:16:00.855Z,17.40
2022-08-22T00:21:22.019Z,17.40
2022-08-22T00:26:57.534Z,17.40
2022-08-22T00:32:23.786Z,17.30
2022-08-22T00:37:43.403Z,17.30
2022-08-22T00:42:53.802Z,17.20
2022-08-22T00:47:55.480Z,17.20
2022-08-22T00:53:11.196Z,17.20
2022-08-22T00:58:37.294Z,17.10
2022-08-22T01:03:46.647Z,17.10
2022-08-22T01:09:10.021Z,17.10
2022-08-22T01:14:11.650Z,17.00
2022-08-22T01:19:25.395Z,17.00
2022-08-22T01:25:18.349Z,17.00
2022-08-22T01:31:13.110Z,16.90
2022-08-22T01:36:36.865Z,16.90
2022-08-22T01:41:46.931Z,16.80
2022-08-22T01:47:23.191Z,16.80
2022-08-22T01:53:05.534Z,16.70
2022-08-22T01:58:42.912Z,16.70
2022-08-22T02:04:01.060Z,16.60
2022-08-22T02:09:39.368Z,16.60
2022-08-22T02:14:52.458Z,16.50
2022-08-22T02:20:01.486Z,16.50
2022-08-22T02:25:23.482Z,16.50
2022-08-22T02:30:44.428Z,16.40
2022-08-22T02:35:59.106Z,16.40
2022-08-22T02:41:44.035Z,16.40
2022-08-22T02:47:14.929Z,16.40
2022-08-22T02:52:40.218Z,16.30
2022-08-22T02:58:13.920Z,16.20
2022-08-22T03:03:25.815Z,16.10
2022-08-22T03:08:47.398Z,16.10
2022-08-22T03:14:14.572Z,16.00
2022-08-22T03:19:19.386Z,16.00
2022-08-22T03:24:25.517Z,15.90
2022-08-22T03:29:38.412Z,16.00
2022-08-22T03:34:59.508Z,15.90
2022-08-22T03:40:21.652Z,15.90
2022-08-22T03:45:44.660Z,15.80
2022-08-22T03:50:58.242Z,15.70
2022-08-22T03:56:37.216Z,15.70
2022-08-22T04:01:47.841Z,15.70
2022-08-22T04:07:32.148Z,15.70
2022-08-22T04:12:58.947Z,15.60
2022-08-22T04:18:19.589Z,15.60
2022-08-22T04:23:28.001Z,15.60
2022-08-22T04:28:39.711Z,15.60
2022-08-22T04:34:02.483Z,15.60
2022-08-22T04:39:19.213Z,15.70
2022-08-22T04:44:41.145Z,15.70
2022-08-22T04:49:51.816Z,15.80
2022-08-22T04:55:21.441Z,15.90
2022-08-22T05:00:23.637Z,15.90
2022-08-22T05:05:34.999Z,15.90
2022-08-22T05:10:41.816Z,15.90
2022-08-22T05:15:48.338Z,16.00
2022-08-22T05:20:52.698Z,16.10
2022-08-22T05:26:00.438Z,16.20
2022-08-22T05:31:13.671Z,16.30
2022-08-22T05:36:28.670Z,16.40
2022-08-22T05:41:38.073Z,16.50
2022-08-22T05:46:43.894Z,16.60
2022-08-22T05:51:49.151Z,16.70
2022-08-22T05:57:07.805Z,16.80
2022-08-22T06:02:20.941Z,17.00
2022-08-22T06:07:33.644Z,17.30
2022-08-22T06:12:54.199Z,17.50
2022-08-22T06:18:01.772Z,17.70
2022-08-22T06:23:06.756Z,17.80
2022-08-22T06:28:13.704Z,17.90
2022-08-22T06:33:21.588Z,18.00
2022-08-22T06:38:29.441Z,18.20
2022-08-22T06:43:43.793Z,18.20
2022-08-22T06:48:46.348Z,18.40
2022-08-22T06:53:53.597Z,18.50
2022-08-22T06:58:59.273Z,18.60
2022-08-22T07:04:08.787Z,18.80
2022-08-22T07:09:29.258Z,19.10
2022-08-22T07:14:42.955Z,19.30
2022-08-22T07:20:00.174Z,19.40
2022-08-22T07:25:11.276Z,19.50
2022-08-22T07:30:28.018Z,19.80
2022-08-22T07:35:41.938Z,20.00
2022-08-22T07:41:26.703Z,20.00
2022-08-22T07:46:31.445Z,20.10
2022-08-22T07:51:47.074Z,20.10
2022-08-22T07:56:59.594Z,20.20
2022-08-22T08:02:05.820Z,20.20
2022-08-22T08:07:10.670Z,20.10
2022-08-22T08:12:14.120Z,20.30
2022-08-22T08:17:32.344Z,20.30
2022-08-22T08:22:35.208Z,20.30
2022-08-22T08:27:56.828Z,20.60
2022-08-22T08:33:24.713Z,20.80
2022-08-22T08:38:29.125Z,21.00
2022-08-22T08:43:40.916Z,21.30
2022-08-22T08:49:01.073Z,21.60
2022-08-22T08:54:43.273Z,21.50
2022-08-22T09:00:07.479Z,21.60
2022-08-22T09:05:43.255Z,21.70
2022-08-22T09:10:58.331Z,21.60
2022-08-22T09:16:14.007Z,21.70
2022-08-22T09:21:41.355Z,21.90
2022-08-22T09:27:03.805Z,22.20
2022-08-22T09:32:33.684Z,22.40
2022-08-22T09:37:52.190Z,22.40
2022-08-22T09:43:11.459Z,22.50
2022-08-22T09:48:44.533Z,22.80
2022-08-22T09:54:02.260Z,22.80
2022-08-22T09:59:12.785Z,23.30
2022-08-22T10:04:56.262Z,23.40
2022-08-22T10:10:46.578Z,23.60
2022-08-22T10:15:56.610Z,23.60
2022-08-22T10:21:26.624Z,23.50
2022-08-22T10:26:47.468Z,23.40
2022-08-22T10:31:59.504Z,23.40
2022-08-22T10:37:10.521Z,23.80
2022-08-22T10:42:35.538Z,24.00
2022-08-22T10:48:00.492Z,24.30
2022-08-22T10:53:35.043Z,24.00
2022-08-22T10:58:54.852Z,24.30
2022-08-22T11:04:05.352Z,24.50
2022-08-22T11:09:17.186Z,24.70
2022-08-22T11:14:37.915Z,24.80
2022-08-22T11:19:57.739Z,24.50
2022-08-22T11:25:29.236Z,24.90
2022-08-22T11:31:10.670Z,24.70
2022-08-22T11:36:37.390Z,24.70
2022-08-22T11:41:56.373Z,24.70
2022-08-22T11:47:01.709Z,24.50
2022-08-22T11:52:22.338Z,24.30
2022-08-22T11:57:44.251Z,24.10
2022-08-22T12:03:14.595Z,24.20
2022-08-22T12:08:46.359Z,24.20
2022-08-22T12:14:04.678Z,24.70
2022-08-22T12:19:08.207Z,25.10
2022-08-22T12:24:31.701Z,24.90
2022-08-22T12:29:52.341Z,25.00
2022-08-22T12:35:14.608Z,25.40
2022-08-22T12:40:19.173Z,25.30
2022-08-22T12:45:26.770Z,25.70
2022-08-22T12:50:37.643Z,26.00
2022-08-22T12:55:51.369Z,26.00
2022-08-22T13:01:01.164Z,26.00
2022-08-22T13:06:22.681Z,26.10
2022-08-22T13:11:25.780Z,26.50
2022-08-22T13:16:48.832Z,26.70
2022-08-22T13:22:08.896Z,26.70
2022-08-22T13:27:22.154Z,26.50
2022-08-22T13:32:34.081Z,26.50
2022-08-22T13:37:40.655Z,26.40
2022-08-22T13:42:48.081Z,25.80
2022-08-22T13:47:58.924Z,26.50
2022-08-22T13:53:12.010Z,26.60
2022-08-22T13:58:32.275Z,26.70
2022-08-22T14:03:48.830Z,26.40
2022-08-22T14:08:56.124Z,26.40
2022-08-22T14:14:02.207Z,26.30
2022-08-22T14:19:34.955Z,26.20
2022-08-22T14:25:00.753Z,26.00
2022-08-22T14:30:18.672Z,26.20
2022-08-22T14:35:35.071Z,26.30
2022-08-22T14:40:41.306Z,26.20
2022-08-22T14:45:53.862Z,26.00
2022-08-22T14:51:10.208Z,26.20
2022-08-22T14:56:23.837Z,26.10
2022-08-22T15:01:29.804Z,26.00
2022-08-22T15:06:48.187Z,26.30
2022-08-22T15:11:50.620Z,25.80
2022-08-22T15:16:58.457Z,25.80
2022-08-22T15:22:25.736Z,25.80
2022-08-22T15:27:32.017Z,26.00
2022-08-22T15:32:42.012Z,26.00
2022-08-22T15:38:36.528Z,25.70
2022-08-22T15:43:47.409Z,25.70
2022-08-22T15:49:01.010Z,25.70
2022-08-22T15:54:31.537Z,25.50
2022-08-22T16:00:01.317Z,25.60
2022-08-22T16:05:11.648Z,25.20
2022-08-22T16:10:39.890Z,25.20
2022-08-22T16:15:55.726Z,24.90
2022-08-22T16:20:58.224Z,24.70
2022-08-22T16:26:10.244Z,24.60
2022-08-22T16:31:28.834Z,24.30
2022-08-22T16:36:41.506Z,24.30
2022-08-22T16:41:44.226Z,24.00
2022-08-22T16:46:47.748Z,24.00
2022-08-22T16:52:24.656Z,23.90
2022-08-22T16:58:05.377Z,23.80
2022-08-22T17:03:45.494Z,23.70
2022-08-22T17:08:53.796Z,23.50
2022-08-22T17:14:27.317Z,23.50
2022-08-22T17:19:41.016Z,23.40
2022-08-22T17:25:03.065Z,23.30
2022-08-22T17:30:10.772Z,23.30
2022-08-22T17:35:55.179Z,23.20
2022-08-22T17:41:25.907Z,23.10
2022-08-22T17:46:38.807Z,23.00
2022-08-22T17:52:00.485Z,22.90
2022-08-22T17:57:14.500Z,22.80
2022-08-22T18:02:21.347Z,22.70
2022-08-22T18:07:50.635Z,22.60
2022-08-22T18:13:29.674Z,22.50
2022-08-22T18:18:37.366Z,22.40
2022-08-22T18:23:44.022Z,22.30
2022-08-22T18:29:07.773Z,22.20
2022-08-22T18:34:45.800Z,22.00
2022-08-22T18:39:55.081Z,21.90
2022-08-22T18:44:57.108Z,21.90
2022-08-22T18:50:02.105Z,21.80
2022-08-22T18:55:06.777Z,21.70
2022-08-22T19:00:19.456Z,21.60
2022-08-22T19:05:38.988Z,21.50
2022-08-22T19:10:55.647Z,21.40
2022-08-22T19:16:15.170Z,21.40
2022-08-22T19:21:43.589Z,21.30
2022-08-22T19:26:48.276Z,21.20
2022-08-22T19:31:51.738Z,21.20
2022-08-22T19:37:11.570Z,21.20
2022-08-22T19:42:36.639Z,21.10
2022-08-22T19:47:42.190Z,21.00
2022-08-22T19:52:54.462Z,20.90
2022-08-22T19:58:13.293Z,20.90
2022-08-22T20:03:40.118Z,20.90
2022-08-22T20:09:02.070Z,20.80
2022-08-22T20:14:25.001Z,20.80
2022-08-22T20:20:16.552Z,20.70
2022-08-22T20:25:33.318Z,20.70
2022-08-22T20:30:43.401Z,20.60
2022-08-22T20:35:54.380Z,20.60
2022-08-22T20:41:11.650Z,20.50
2022-08-22T20:46:17.655Z,20.50
2022-08-22T20:51:25.001Z,20.50
2022-08-22T20:56:35.552Z,20.40
2022-08-22T21:01:38.591Z,20.30
2022-08-22T21:06:40.372Z,20.10
2022-08-22T21:11:50.514Z,20.10
2022-08-22T21:16:53.311Z,20.10
2022-08-22T21:22:14.352Z,20.00
2022-08-22T21:27:39.503Z,19.90
2022-08-22T21:32:52.300Z,19.90
2022-08-22T21:37:59.151Z,19.90
2022-08-22T21:43:26.716Z,19.80
2022-08-22T21:48:37.813Z,19.80
2022-08-22T21:53:39.800Z,19.80
2022-08-22T21:58:42.580Z,19.70
2022-08-22T22:03:44.358Z,19.60
2022-08-22T22:08:46.442Z,19.50
2022-08-22T22:13:48.942Z,19.40
2022-08-22T22:18:50.633Z,19.30
2022-08-22T22:23:52.658Z,19.30
2022-08-22T22:28:54.645Z,19.20
2022-08-22T22:33:56.402Z,19.20
2022-08-22T22:38:58.567Z,19.10
2022-08-22T22:44:00.443Z,19.00
2022-08-22T22:49:02.178Z,18.90
2022-08-22T22:54:03.958Z,18.80
2022-08-22T22:59:12.735Z,18.70
2022-08-22T23:04:16.358Z,18.60
2022-08-22T23:09:18.099Z,18.50
2022-08-22T23:14:20.178Z,18.40
2022-08-22T23:19:21.869Z,18.30
2022-08-22T23:24:25.093Z,18.10
2022-08-22T23:29:26.933Z,18.00
2022-08-22T23:34:35.457Z,17.90
2022-08-22T23:39:38.419Z,17.90
2022-08-22T23:44:41.613Z,17.90
2022-08-22T23:49:43.848Z,17.80
2022-08-22T23:54:45.647Z,17.80
2022-08-22T23:59:57.826Z,17.70
